createdAt,value
2023-04-18T00:01:30.489Z,100750.31
2023-04-18T00:03:58.084Z,100754.31
2023-04-18T00:06:25.969Z,100742.91
2023-04-18T00:08:53.264Z,100752.03
2023-04-18T00:11:20.783Z,100751.84
2023-04-18T00:13:48.138Z,100747.88
2023-04-18T00:16:15.537Z,100753.53
2023-04-18T00:18:42.895Z,100750.78
2023-04-18T00:21:10.265Z,100745.53
2023-04-18T00:23:37.479Z,100739.25
2023-04-18T00:26:04.814Z,100740.91
2023-04-18T00:28:32.004Z,100736.72
2023-04-18T00:30:59.247Z,100736.66
2023-04-18T00:33:26.611Z,100734.69
2023-04-18T00:35:53.844Z,100731.81
2023-04-18T00:38:21.127Z,100738.75
2023-04-18T00:40:48.534Z,100730.72
2023-04-18T00:43:16.060Z,100725.72
2023-04-18T00:45:43.835Z,100724.84
2023-04-18T00:48:11.232Z,100725.97
2023-04-18T00:50:38.595Z,100732.69
2023-04-18T00:53:06.158Z,100722.38
2023-04-18T00:55:34.085Z,100731.53
2023-04-18T00:58:03.759Z,100729.06
2023-04-18T01:00:31.488Z,100726.47
2023-04-18T01:02:59.738Z,100734.31
2023-04-18T01:05:27.196Z,100722.56
2023-04-18T01:07:58.774Z,100732.41
2023-04-18T01:10:26.426Z,100730.94
2023-04-18T01:13:12.846Z,100736.81
2023-04-18T01:15:41.043Z,100732.56
2023-04-18T01:18:09.036Z,100725.72
2023-04-18T01:20:41.483Z,100722.84
2023-04-18T01:23:10.472Z,100719.66
2023-04-18T01:25:38.598Z,100715.84
2023-04-18T01:28:06.439Z,100718.31
2023-04-18T01:30:34.265Z,100718.50
2023-04-18T01:33:02.541Z,100704.03
2023-04-18T01:35:29.939Z,100713.47
2023-04-18T01:37:57.514Z,100706.41
2023-04-18T01:40:25.283Z,100701.75
2023-04-18T01:42:53.754Z,100705.75
2023-04-18T01:45:22.331Z,100701.88
2023-04-18T01:47:49.612Z,100697.44
2023-04-18T01:50:16.846Z,100693.56
2023-04-18T01:52:44.182Z,100700.75
2023-04-18T01:55:11.439Z,100701.00
2023-04-18T01:57:38.676Z,100701.88
2023-04-18T02:00:06.416Z,100702.38
2023-04-18T02:02:42.850Z,100696.47
2023-04-18T02:05:10.685Z,100702.09
2023-04-18T02:07:41.161Z,100704.81
2023-04-18T02:10:09.771Z,100699.66
2023-04-18T02:12:37.622Z,100695.34
2023-04-18T02:15:05.221Z,100707.84
2023-04-18T02:17:36.339Z,100698.41
2023-04-18T02:20:04.259Z,100711.09
2023-04-18T02:22:32.049Z,100705.03
2023-04-18T02:25:01.547Z,100699.75
2023-04-18T02:27:29.180Z,100697.47
2023-04-18T02:29:57.665Z,100688.50
2023-04-18T02:32:24.973Z,100681.56
2023-04-18T02:34:52.323Z,100689.22
2023-04-18T02:37:19.539Z,100687.09
2023-04-18T02:39:46.837Z,100690.81
2023-04-18T02:42:14.653Z,100692.72
2023-04-18T02:44:42.020Z,100695.25
2023-04-18T02:47:09.942Z,100693.50
2023-04-18T02:49:40.239Z,100700.56
2023-04-18T02:52:07.480Z,100696.03
2023-04-18T02:54:34.852Z,100697.63
2023-04-18T02:57:07.274Z,100696.81
2023-04-18T02:59:57.910Z,100693.31
2023-04-18T03:02:43.530Z,100695.50
2023-04-18T03:05:23.841Z,100691.63
2023-04-18T03:07:52.038Z,100692.69
2023-04-18T03:10:19.511Z,100689.09
2023-04-18T03:12:47.687Z,100689.63
2023-04-18T03:15:17.392Z,100687.91
2023-04-18T03:17:44.859Z,100694.50
2023-04-18T03:20:13.395Z,100695.44
2023-04-18T03:22:40.927Z,100692.16
2023-04-18T03:25:08.462Z,100695.09
2023-04-18T03:27:45.975Z,100690.78
2023-04-18T03:30:16.814Z,100690.81
2023-04-18T03:32:49.592Z,100684.22
2023-04-18T03:35:16.877Z,100692.91
2023-04-18T03:37:44.251Z,100694.34
2023-04-18T03:40:14.345Z,100694.63
2023-04-18T03:42:42.381Z,100688.03
2023-04-18T03:45:11.304Z,100686.75
2023-04-18T03:47:39.094Z,100685.97
2023-04-18T03:50:06.818Z,100689.25
2023-04-18T03:52:34.380Z,100688.09
2023-04-18T03:55:04.884Z,100688.09
2023-04-18T03:57:34.192Z,100683.28
2023-04-18T04:00:08.056Z,100687.75
2023-04-18T04:02:43.188Z,100688.25
2023-04-18T04:05:17.288Z,100690.97
2023-04-18T04:07:44.595Z,100689.19
2023-04-18T04:10:12.864Z,100687.56
2023-04-18T04:12:40.052Z,100690.69
2023-04-18T04:15:07.433Z,100692.75
2023-04-18T04:17:36.686Z,100700.50
2023-04-18T04:20:04.116Z,100695.56
2023-04-18T04:22:32.867Z,100690.22
2023-04-18T04:25:00.875Z,100694.31
2023-04-18T04:27:39.046Z,100699.59
2023-04-18T04:30:11.974Z,100697.69
2023-04-18T04:32:40.838Z,100704.88
2023-04-18T04:35:08.752Z,100702.13
2023-04-18T04:37:36.005Z,100702.47
2023-04-18T04:40:38.287Z,100702.34
2023-04-18T04:43:15.476Z,100701.41
2023-04-18T04:45:44.683Z,100701.59
2023-04-18T04:48:12.824Z,100710.06
2023-04-18T04:50:41.608Z,100713.59
2023-04-18T04:53:11.876Z,100713.84
2023-04-18T04:55:39.687Z,100719.66
2023-04-18T04:58:07.463Z,100720.31
2023-04-18T05:01:03.849Z,100724.50
2023-04-18T05:03:36.488Z,100719.16
2023-04-18T05:06:04.750Z,100722.03
2023-04-18T05:08:32.027Z,100726.44
2023-04-18T05:10:59.480Z,100729.28
2023-04-18T05:13:26.743Z,100733.16
2023-04-18T05:15:54.067Z,100731.75
2023-04-18T05:18:21.307Z,100731.56
2023-04-18T05:20:48.530Z,100739.84
2023-04-18T05:23:16.328Z,100733.63
2023-04-18T05:25:43.629Z,100735.63
2023-04-18T05:28:10.875Z,100736.75
2023-04-18T05:30:38.117Z,100739.63
2023-04-18T05:33:05.543Z,100743.88
2023-04-18T05:35:32.822Z,100742.44
2023-04-18T05:38:00.175Z,100747.59
2023-04-18T05:40:27.517Z,100740.06
2023-04-18T05:42:54.702Z,100746.53
2023-04-18T05:45:21.932Z,100748.53
2023-04-18T05:47:49.226Z,100743.41
2023-04-18T05:50:16.454Z,100750.25
2023-04-18T05:52:43.748Z,100749.00
2023-04-18T05:55:11.108Z,100749.78
2023-04-18T05:57:38.349Z,100750.72
2023-04-18T06:00:11.574Z,100750.91
2023-04-18T06:02:41.904Z,100754.09
2023-04-18T06:05:09.499Z,100755.13
2023-04-18T06:07:36.885Z,100774.38
2023-04-18T06:10:05.697Z,100766.78
2023-04-18T06:12:33.028Z,100767.09
2023-04-18T06:15:00.633Z,100772.78
2023-04-18T06:17:27.854Z,100772.41
2023-04-18T06:19:55.086Z,100772.91
2023-04-18T06:22:22.450Z,100766.19
2023-04-18T06:24:49.782Z,100768.81
2023-04-18T06:27:30.250Z,100767.38
2023-04-18T06:29:58.661Z,100776.56
2023-04-18T06:32:26.150Z,100774.66
2023-04-18T06:34:53.459Z,100779.69
2023-04-18T06:37:20.823Z,100777.97
2023-04-18T06:39:48.095Z,100777.44
2023-04-18T06:42:15.652Z,100775.16
2023-04-18T06:44:47.993Z,100760.81
2023-04-18T06:47:15.652Z,100763.69
2023-04-18T06:49:42.872Z,100749.16
2023-04-18T06:52:10.187Z,100754.72
2023-04-18T06:54:37.442Z,100769.47
2023-04-18T06:57:04.809Z,100769.34
2023-04-18T06:59:32.102Z,100765.94
2023-04-18T07:01:59.327Z,100769.88
2023-04-18T07:04:27.015Z,100771.13
2023-04-18T07:06:54.417Z,100771.28
2023-04-18T07:09:22.724Z,100777.88
2023-04-18T07:11:51.137Z,100763.75
2023-04-18T07:14:19.987Z,100775.16
2023-04-18T07:16:47.264Z,100774.41
2023-04-18T07:19:14.609Z,100774.72
2023-04-18T07:21:43.909Z,100776.28
2023-04-18T07:24:12.115Z,100777.88
2023-04-18T07:26:39.658Z,100780.53
2023-04-18T07:29:06.925Z,100781.72
2023-04-18T07:31:34.545Z,100785.38
2023-04-18T07:34:02.034Z,100781.94
2023-04-18T07:36:29.213Z,100781.97
2023-04-18T07:38:56.439Z,100779.97
2023-04-18T07:41:23.642Z,100779.19
2023-04-18T07:43:50.876Z,100789.09
2023-04-18T07:46:18.358Z,100783.16
2023-04-18T07:48:46.295Z,100782.75
2023-04-18T07:51:13.691Z,100785.09
2023-04-18T07:53:43.837Z,100794.59
2023-04-18T07:56:12.535Z,100780.38
2023-04-18T07:58:40.067Z,100790.66
2023-04-18T08:01:07.807Z,100800.16
2023-04-18T08:03:36.573Z,100803.34
2023-04-18T08:06:05.672Z,100807.69
2023-04-18T08:08:32.848Z,100798.97
2023-04-18T08:11:00.087Z,100797.38
2023-04-18T08:13:27.377Z,100796.91
2023-04-18T08:15:55.965Z,100806.31
2023-04-18T08:18:23.279Z,100808.69
2023-04-18T08:20:50.651Z,100810.84
2023-04-18T08:23:18.313Z,100812.06
2023-04-18T08:25:45.794Z,100811.63
2023-04-18T08:28:13.597Z,100808.25
2023-04-18T08:30:40.887Z,100812.16
2023-04-18T08:33:08.173Z,100814.97
2023-04-18T08:35:35.568Z,100815.56
2023-04-18T08:38:02.971Z,100822.56
2023-04-18T08:40:30.486Z,100820.50
2023-04-18T08:42:58.674Z,100820.16
2023-04-18T08:45:26.378Z,100823.91
2023-04-18T08:47:53.827Z,100824.50
2023-04-18T08:50:21.438Z,100817.06
2023-04-18T08:52:50.722Z,100819.63
2023-04-18T08:55:19.196Z,100822.13
2023-04-18T08:57:47.545Z,100821.72
2023-04-18T09:00:17.636Z,100825.31
2023-04-18T09:02:46.961Z,100826.41
2023-04-18T09:05:16.285Z,100815.50
2023-04-18T09:07:43.632Z,100823.13
2023-04-18T09:10:12.545Z,100813.03
2023-04-18T09:12:50.119Z,100816.25
2023-04-18T09:15:20.307Z,100820.69
2023-04-18T09:17:53.436Z,100818.72
2023-04-18T09:20:34.413Z,100812.94
2023-04-18T09:23:03.782Z,100809.28
2023-04-18T09:25:48.047Z,100807.06
2023-04-18T09:28:23.235Z,100813.84
2023-04-18T09:30:51.614Z,100812.09
2023-04-18T09:33:28.182Z,100813.47
2023-04-18T09:35:55.919Z,100806.41
2023-04-18T09:38:38.779Z,100813.59
2023-04-18T09:41:09.909Z,100813.16
2023-04-18T09:43:37.217Z,100808.06
2023-04-18T09:46:05.640Z,100814.34
2023-04-18T09:48:33.006Z,100813.44
2023-04-18T09:51:05.514Z,100810.88
2023-04-18T09:53:34.186Z,100813.28
2023-04-18T09:56:02.316Z,100810.31
2023-04-18T09:58:32.929Z,100809.13
2023-04-18T10:01:00.389Z,100813.41
2023-04-18T10:03:32.839Z,100814.13
2023-04-18T10:06:00.477Z,100813.38
2023-04-18T10:08:28.051Z,100808.72
2023-04-18T10:10:57.894Z,100813.16
2023-04-18T10:13:26.411Z,100815.84
2023-04-18T10:15:54.714Z,100804.66
2023-04-18T10:18:25.299Z,100813.41
2023-04-18T10:21:00.928Z,100804.53
2023-04-18T10:23:30.922Z,100805.63
2023-04-18T10:25:59.139Z,100807.88
2023-04-18T10:28:27.727Z,100803.03
2023-04-18T10:30:56.362Z,100798.94
2023-04-18T10:33:30.246Z,100796.72
2023-04-18T10:36:20.500Z,100806.31
2023-04-18T10:38:52.784Z,100793.69
2023-04-18T10:41:22.331Z,100797.03
2023-04-18T10:44:11.710Z,100795.28
2023-04-18T10:46:43.167Z,100793.78
2023-04-18T10:49:20.373Z,100782.59
2023-04-18T10:51:49.541Z,100786.09
2023-04-18T10:54:32.128Z,100784.16
2023-04-18T10:57:01.834Z,100781.81
2023-04-18T10:59:30.022Z,100775.84
2023-04-18T11:01:59.513Z,100787.63
2023-04-18T11:04:27.142Z,100779.56
2023-04-18T11:06:58.373Z,100775.97
2023-04-18T11:09:25.634Z,100771.50
2023-04-18T11:12:13.070Z,100774.78
2023-04-18T11:14:44.735Z,100766.59
2023-04-18T11:17:40.153Z,100759.38
2023-04-18T11:20:12.903Z,100760.28
2023-04-18T11:22:46.023Z,100760.53
2023-04-18T11:25:13.905Z,100756.81
2023-04-18T11:27:42.650Z,100760.34
2023-04-18T11:30:10.427Z,100757.56
2023-04-18T11:32:37.693Z,100755.16
2023-04-18T11:35:05.200Z,100757.44
2023-04-18T11:37:32.687Z,100761.09
2023-04-18T11:39:59.932Z,100753.97
2023-04-18T11:42:28.556Z,100764.50
2023-04-18T11:44:55.916Z,100759.56
2023-04-18T11:47:23.171Z,100758.16
2023-04-18T11:49:57.442Z,100754.19
2023-04-18T11:52:25.005Z,100754.59
2023-04-18T11:54:52.403Z,100756.63
2023-04-18T11:57:19.616Z,100762.44
2023-04-18T11:59:52.896Z,100762.25
2023-04-18T12:02:21.083Z,100754.31
2023-04-18T12:04:53.098Z,100746.66
2023-04-18T12:07:31.275Z,100750.34
2023-04-18T12:09:58.722Z,100748.34
2023-04-18T12:12:26.013Z,100753.88
2023-04-18T12:14:59.986Z,100750.94
2023-04-18T12:17:27.852Z,100743.34
2023-04-18T12:19:55.617Z,100758.22
2023-04-18T12:22:40.073Z,100756.31
2023-04-18T12:25:08.641Z,100746.66
2023-04-18T12:27:52.166Z,100743.03
2023-04-18T12:30:22.908Z,100748.66
2023-04-18T12:32:51.336Z,100753.31
2023-04-18T12:35:19.530Z,100750.78
2023-04-18T12:37:49.789Z,100756.28
2023-04-18T12:40:19.063Z,100752.13
2023-04-18T12:42:46.925Z,100749.88
2023-04-18T12:45:15.120Z,100748.25
2023-04-18T12:47:43.385Z,100761.94
2023-04-18T12:50:12.009Z,100752.84
2023-04-18T12:52:40.725Z,100752.41
2023-04-18T12:55:08.251Z,100750.38
2023-04-18T12:57:35.740Z,100742.06
2023-04-18T13:00:06.403Z,100741.16
2023-04-18T13:02:37.239Z,100747.97
2023-04-18T13:05:05.842Z,100740.56
2023-04-18T13:07:33.183Z,100737.59
2023-04-18T13:10:00.844Z,100747.22
2023-04-18T13:12:29.503Z,100740.09
2023-04-18T13:14:57.213Z,100739.66
2023-04-18T13:17:24.671Z,100740.31
2023-04-18T13:19:52.071Z,100732.06
2023-04-18T13:22:20.057Z,100739.78
2023-04-18T13:24:47.622Z,100738.84
2023-04-18T13:27:14.764Z,100743.06
2023-04-18T13:29:42.752Z,100748.63
2023-04-18T13:32:10.251Z,100738.03
2023-04-18T13:34:39.644Z,100747.41
2023-04-18T13:37:06.712Z,100744.72
2023-04-18T13:39:34.123Z,100740.66
2023-04-18T13:42:04.532Z,100742.53
2023-04-18T13:44:31.642Z,100743.06
2023-04-18T13:46:58.761Z,100740.69
2023-04-18T13:49:25.920Z,100750.59
2023-04-18T13:51:59.030Z,100744.31
2023-04-18T13:54:27.207Z,100747.09
2023-04-18T13:56:54.612Z,100748.31
2023-04-18T13:59:21.706Z,100743.19
2023-04-18T14:01:49.237Z,100745.56
2023-04-18T14:04:16.739Z,100744.38
2023-04-18T14:06:44.194Z,100759.72
2023-04-18T14:09:11.380Z,100745.56
2023-04-18T14:11:38.601Z,100750.28
2023-04-18T14:14:05.969Z,100746.34
2023-04-18T14:16:33.443Z,100742.41
2023-04-18T14:19:01.352Z,100742.38
2023-04-18T14:21:28.792Z,100740.75
2023-04-18T14:23:56.126Z,100745.44
2023-04-18T14:26:23.553Z,100739.44
2023-04-18T14:28:50.781Z,100736.50
2023-04-18T14:31:17.989Z,100736.75
2023-04-18T14:33:45.167Z,100741.78
2023-04-18T14:36:12.533Z,100741.34
2023-04-18T14:38:39.728Z,100734.09
2023-04-18T14:41:07.269Z,100736.03
2023-04-18T14:43:34.366Z,100738.16
2023-04-18T14:46:01.492Z,100729.41
2023-04-18T14:48:28.567Z,100728.84
2023-04-18T14:50:56.154Z,100724.94
2023-04-18T14:53:23.409Z,100722.25
2023-04-18T14:55:50.677Z,100721.22
2023-04-18T14:58:17.789Z,100723.31
2023-04-18T15:00:44.943Z,100723.50
2023-04-18T15:03:12.220Z,100726.31
2023-04-18T15:05:42.868Z,100722.63
2023-04-18T15:08:10.969Z,100729.63
2023-04-18T15:10:38.390Z,100723.66
2023-04-18T15:13:05.650Z,100729.97
2023-04-18T15:15:35.560Z,100720.66
2023-04-18T15:18:02.939Z,100726.69
2023-04-18T15:20:30.423Z,100726.94
2023-04-18T15:22:57.580Z,100732.38
2023-04-18T15:25:26.144Z,100734.09
2023-04-18T15:27:53.300Z,100733.78
2023-04-18T15:30:20.428Z,100731.34
2023-04-18T15:32:48.397Z,100733.13
2023-04-18T15:35:15.476Z,100733.97
2023-04-18T15:37:42.572Z,100739.66
2023-04-18T15:40:11.301Z,100738.91
2023-04-18T15:42:39.199Z,100731.81
2023-04-18T15:45:06.852Z,100738.56
2023-04-18T15:47:34.231Z,100735.00
2023-04-18T15:50:02.794Z,100741.34
2023-04-18T15:52:30.095Z,100745.44
2023-04-18T15:54:57.813Z,100737.44
2023-04-18T15:57:24.892Z,100739.50
2023-04-18T15:59:52.121Z,100742.31
2023-04-18T16:02:19.329Z,100741.53
2023-04-18T16:04:46.634Z,100742.69
2023-04-18T16:07:13.885Z,100749.03
2023-04-18T16:09:40.979Z,100744.72
2023-04-18T16:12:08.857Z,100746.31
2023-04-18T16:14:35.941Z,100756.22
2023-04-18T16:17:03.665Z,100748.69
2023-04-18T16:19:30.865Z,100755.84
2023-04-18T16:21:57.912Z,100758.19
2023-04-18T16:24:25.716Z,100760.59
2023-04-18T16:26:53.530Z,100762.56
2023-04-18T16:29:20.552Z,100757.03
2023-04-18T16:31:47.983Z,100762.16
2023-04-18T16:34:15.726Z,100762.94
2023-04-18T16:36:42.899Z,100774.72
2023-04-18T16:39:10.001Z,100773.16
2023-04-18T16:41:37.057Z,100776.69
2023-04-18T16:44:04.293Z,100784.22
2023-04-18T16:46:32.309Z,100785.38
2023-04-18T16:48:59.565Z,100779.84
2023-04-18T16:51:28.633Z,100781.81
2023-04-18T16:53:56.032Z,100780.63
2023-04-18T16:56:23.183Z,100781.78
2023-04-18T16:58:50.241Z,100788.03
2023-04-18T17:01:17.363Z,100791.16
2023-04-18T17:03:44.671Z,100791.41
2023-04-18T17:06:11.844Z,100791.09
2023-04-18T17:08:39.090Z,100791.06
2023-04-18T17:11:06.477Z,100798.50
2023-04-18T17:13:33.525Z,100792.97
2023-04-18T17:16:00.785Z,100794.16
2023-04-18T17:18:28.906Z,100805.19
2023-04-18T17:20:55.963Z,100799.97
2023-04-18T17:23:37.213Z,100796.34
2023-04-18T17:26:04.237Z,100803.03
2023-04-18T17:28:31.344Z,100804.19
2023-04-18T17:30:58.593Z,100805.69
2023-04-18T17:33:25.660Z,100800.53
2023-04-18T17:35:52.776Z,100808.38
2023-04-18T17:38:19.846Z,100812.38
2023-04-18T17:40:46.923Z,100810.78
2023-04-18T17:43:14.004Z,100817.69
2023-04-18T17:45:41.277Z,100814.13
2023-04-18T17:48:08.451Z,100816.69
2023-04-18T17:50:37.063Z,100814.63
2023-04-18T17:53:04.190Z,100815.00
2023-04-18T17:55:31.244Z,100829.16
2023-04-18T17:57:58.421Z,100822.78
2023-04-18T18:00:25.678Z,100824.75
2023-04-18T18:02:52.972Z,100826.22
2023-04-18T18:05:20.182Z,100828.22
2023-04-18T18:07:47.476Z,100835.97
2023-04-18T18:10:18.954Z,100833.50
2023-04-18T18:12:46.246Z,100837.25
2023-04-18T18:15:13.420Z,100835.56
2023-04-18T18:17:40.520Z,100844.88
2023-04-18T18:20:08.621Z,100847.53
2023-04-18T18:22:36.114Z,100845.38
2023-04-18T18:25:03.849Z,100853.66
2023-04-18T18:27:31.115Z,100854.91
2023-04-18T18:29:58.197Z,100853.84
2023-04-18T18:32:26.848Z,100863.66
2023-04-18T18:34:53.956Z,100861.63
2023-04-18T18:37:23.182Z,100868.50
2023-04-18T18:39:50.286Z,100869.97
2023-04-18T18:42:21.137Z,100880.13
2023-04-18T18:44:48.215Z,100884.97
2023-04-18T18:47:16.417Z,100886.81
2023-04-18T18:49:43.549Z,100892.50
2023-04-18T18:52:10.837Z,100901.13
2023-04-18T18:54:37.901Z,100898.38
2023-04-18T18:57:05.044Z,100913.47
2023-04-18T18:59:32.154Z,100910.13
2023-04-18T19:01:59.413Z,100916.91
2023-04-18T19:04:26.677Z,100917.38
2023-04-18T19:06:53.835Z,100924.81
2023-04-18T19:09:21.017Z,100925.34
2023-04-18T19:11:48.116Z,100929.69
2023-04-18T19:14:15.458Z,100929.00
2023-04-18T19:16:42.554Z,100936.16
2023-04-18T19:19:10.187Z,100942.38
2023-04-18T19:21:39.690Z,100942.00
2023-04-18T19:24:06.847Z,100942.38
2023-04-18T19:26:33.867Z,100945.00
2023-04-18T19:29:00.984Z,100950.91
2023-04-18T19:31:28.145Z,100951.34
2023-04-18T19:33:55.343Z,100955.25
2023-04-18T19:36:22.583Z,100956.72
2023-04-18T19:38:49.638Z,100957.88
2023-04-18T19:41:16.706Z,100960.91
2023-04-18T19:43:44.028Z,100965.38
2023-04-18T19:46:11.409Z,100967.72
2023-04-18T19:48:38.496Z,100965.38
2023-04-18T19:51:06.317Z,100964.53
2023-04-18T19:53:33.767Z,100969.59
2023-04-18T19:56:00.920Z,100974.81
2023-04-18T19:58:35.772Z,100973.03
2023-04-18T20:01:05.891Z,100977.41
2023-04-18T20:03:34.041Z,100979.44
2023-04-18T20:06:01.630Z,100984.41
2023-04-18T20:08:29.315Z,100986.94
2023-04-18T20:10:56.566Z,100994.25
2023-04-18T20:13:23.813Z,100993.97
2023-04-18T20:15:50.948Z,100990.09
2023-04-18T20:18:18.115Z,100993.75
2023-04-18T20:20:45.146Z,100996.16
2023-04-18T20:23:14.356Z,100995.41
2023-04-18T20:25:41.628Z,101002.72
2023-04-18T20:28:08.973Z,101003.00
2023-04-18T20:30:36.882Z,101004.75
2023-04-18T20:33:04.048Z,101007.84
2023-04-18T20:35:31.492Z,101005.72
2023-04-18T20:38:00.285Z,101008.22
2023-04-18T20:40:28.164Z,101007.34
2023-04-18T20:42:57.880Z,101011.28
2023-04-18T20:45:25.202Z,101007.22
2023-04-18T20:47:52.497Z,101012.53
2023-04-18T20:50:20.543Z,101014.66
2023-04-18T20:52:47.868Z,101019.16
2023-04-18T20:55:16.773Z,101021.66
2023-04-18T20:57:43.945Z,101023.97
2023-04-18T21:00:12.300Z,101029.09
2023-04-18T21:02:40.302Z,101025.66
2023-04-18T21:05:07.874Z,101024.50
2023-04-18T21:07:35.973Z,101028.28
2023-04-18T21:10:03.970Z,101031.47
2023-04-18T21:12:31.448Z,101037.16
2023-04-18T21:14:58.562Z,101037.06
2023-04-18T21:17:25.907Z,101045.03
2023-04-18T21:19:53.037Z,101042.03
2023-04-18T21:22:20.458Z,101038.66
2023-04-18T21:24:47.571Z,101043.19
2023-04-18T21:27:15.898Z,101039.03
2023-04-18T21:29:43.025Z,101032.78
2023-04-18T21:32:10.206Z,101041.81
2023-04-18T21:34:37.228Z,101035.63
2023-04-18T21:37:04.279Z,101044.66
2023-04-18T21:39:31.336Z,101047.66
2023-04-18T21:41:58.436Z,101042.72
2023-04-18T21:44:25.621Z,101041.38
2023-04-18T21:46:52.711Z,101051.47
2023-04-18T21:49:19.932Z,101049.97
2023-04-18T21:51:48.868Z,101050.16
2023-04-18T21:54:16.252Z,101045.56
2023-04-18T21:56:43.589Z,101040.06
2023-04-18T21:59:10.793Z,101044.78
2023-04-18T22:01:38.462Z,101047.66
2023-04-18T22:04:06.148Z,101048.22
2023-04-18T22:06:33.426Z,101041.81
2023-04-18T22:09:01.068Z,101047.13
2023-04-18T22:11:28.575Z,101042.19
2023-04-18T22:13:58.173Z,101053.25
2023-04-18T22:16:25.320Z,101052.06
2023-04-18T22:18:52.388Z,101054.38
2023-04-18T22:21:19.465Z,101050.72
2023-04-18T22:23:46.571Z,101053.63
2023-04-18T22:26:13.679Z,101050.38
2023-04-18T22:28:41.018Z,101053.47
2023-04-18T22:31:08.386Z,101060.69
2023-04-18T22:33:35.764Z,101053.81
2023-04-18T22:36:02.916Z,101054.31
2023-04-18T22:38:29.999Z,101056.19
2023-04-18T22:40:58.881Z,101054.66
2023-04-18T22:43:26.776Z,101056.31
2023-04-18T22:45:53.959Z,101062.25
2023-04-18T22:48:21.171Z,101050.47
2023-04-18T22:50:49.838Z,101054.25
2023-04-18T22:53:17.340Z,101064.88
2023-04-18T22:55:44.808Z,101062.06
2023-04-18T22:58:12.180Z,101059.13
2023-04-18T23:00:39.247Z,101071.44
2023-04-18T23:03:06.537Z,101073.94
2023-04-18T23:05:35.388Z,101066.88
2023-04-18T23:08:02.634Z,101075.19
2023-04-18T23:10:29.685Z,101061.94
2023-04-18T23:12:56.923Z,101069.03
2023-04-18T23:15:24.574Z,101064.44
2023-04-18T23:17:54.761Z,101064.56
2023-04-18T23:20:22.005Z,101066.88
2023-04-18T23:22:51.524Z,101064.56
2023-04-18T23:25:19.631Z,101064.13
2023-04-18T23:27:46.984Z,101062.50
2023-04-18T23:30:17.186Z,101068.81
2023-04-18T23:32:44.311Z,101066.09
2023-04-18T23:35:11.600Z,101061.75
2023-04-18T23:37:38.755Z,101061.63
2023-04-18T23:40:06.843Z,101059.56
2023-04-18T23:42:34.813Z,101061.63
2023-04-18T23:45:03.707Z,101059.56
2023-04-18T23:47:31.334Z,101058.53
2023-04-18T23:49:58.472Z,101055.00
2023-04-18T23:52:25.600Z,101053.28
2023-04-18T23:54:52.679Z,101044.38
2023-04-18T23:57:19.700Z,101050.22
2023-04-18T23:59:46.785Z,101048.03
